createdAt,value
2022-12-27T00:00:20.427Z,101241.56
2022-12-27T00:02:47.422Z,101240.31
2022-12-27T00:05:15.569Z,101247.19
2022-12-27T00:07:44.250Z,101240.69
2022-12-27T00:10:12.111Z,101242.16
2022-12-27T00:12:44.014Z,101233.88
2022-12-27T00:15:11.108Z,101241.66
2022-12-27T00:17:40.991Z,101246.09
2022-12-27T00:20:11.749Z,101252.94
2022-12-27T00:22:40.154Z,101240.50
2022-12-27T00:25:08.040Z,101252.19
2022-12-27T00:27:37.539Z,101250.78
2022-12-27T00:30:05.957Z,101249.78
2022-12-27T00:32:33.049Z,101250.44
2022-12-27T00:35:00.176Z,101240.16
2022-12-27T00:37:27.414Z,101246.63
2022-12-27T00:39:54.348Z,101254.25
2022-12-27T00:42:23.402Z,101257.94
2022-12-27T00:44:50.597Z,101250.09
2022-12-27T00:47:17.516Z,101263.00
2022-12-27T00:49:47.390Z,101262.16
2022-12-27T00:52:14.477Z,101259.66
2022-12-27T00:54:44.111Z,101258.91
2022-12-27T00:57:11.096Z,101268.13
2022-12-27T00:59:37.932Z,101266.84
2022-12-27T01:02:04.958Z,101265.75
2022-12-27T01:04:32.056Z,101270.19
2022-12-27T01:07:02.334Z,101269.81
2022-12-27T01:09:29.339Z,101280.94
2022-12-27T01:11:56.341Z,101275.34
2022-12-27T01:14:25.535Z,101276.53
2022-12-27T01:16:52.508Z,101283.34
2022-12-27T01:19:19.564Z,101292.53
2022-12-27T01:21:46.580Z,101284.00
2022-12-27T01:24:13.541Z,101278.03
2022-12-27T01:26:43.025Z,101301.38
2022-12-27T01:29:13.089Z,101288.34
2022-12-27T01:31:40.324Z,101289.31
2022-12-27T01:34:09.466Z,101297.38
2022-12-27T01:36:36.479Z,101292.19
2022-12-27T01:39:04.017Z,101284.66
2022-12-27T01:41:54.175Z,101300.13
2022-12-27T01:44:39.324Z,101304.41
2022-12-27T01:47:46.182Z,101303.72
2022-12-27T01:50:28.591Z,101308.09
2022-12-27T01:52:59.822Z,101320.72
2022-12-27T01:55:36.055Z,101324.22
2022-12-27T01:58:11.313Z,101317.19
2022-12-27T02:00:40.211Z,101318.59
2022-12-27T02:03:10.827Z,101324.78
2022-12-27T02:05:41.719Z,101322.41
2022-12-27T02:08:29.091Z,101320.50
2022-12-27T02:10:57.288Z,101336.03
2022-12-27T02:13:29.295Z,101323.34
2022-12-27T02:15:56.358Z,101320.28
2022-12-27T02:18:25.799Z,101330.59
2022-12-27T02:21:26.200Z,101328.16
2022-12-27T02:24:33.198Z,101333.88
2022-12-27T02:27:33.653Z,101320.66
2022-12-27T02:30:07.624Z,101329.97
2022-12-27T02:32:55.090Z,101337.47
2022-12-27T02:35:33.694Z,101330.81
2022-12-27T02:38:18.138Z,101334.31
2022-12-27T02:41:05.400Z,101337.81
2022-12-27T02:43:51.966Z,101331.88
2022-12-27T02:46:43.022Z,101355.94
2022-12-27T02:49:52.542Z,101348.41
2022-12-27T02:53:04.150Z,101351.06
2022-12-27T02:56:36.805Z,101339.88
2022-12-27T02:59:15.602Z,101332.47
2022-12-27T03:02:10.099Z,101337.59
2022-12-27T03:05:16.147Z,101337.25
2022-12-27T03:08:24.017Z,101335.59
2022-12-27T03:11:18.182Z,101346.91
2022-12-27T03:14:20.743Z,101345.94
2022-12-27T03:16:56.240Z,101355.56
2022-12-27T03:19:48.363Z,101362.28
2022-12-27T03:22:40.292Z,101369.31
2022-12-27T03:25:26.329Z,101364.25
2022-12-27T03:28:20.685Z,101366.66
2022-12-27T03:31:13.968Z,101368.16
2022-12-27T03:33:43.223Z,101355.84
2022-12-27T03:36:40.100Z,101350.25
2022-12-27T03:39:11.485Z,101350.97
2022-12-27T03:42:20.649Z,101361.75
2022-12-27T03:44:50.114Z,101353.09
2022-12-27T03:47:39.709Z,101348.94
2022-12-27T03:50:25.401Z,101338.94
2022-12-27T03:52:58.395Z,101349.63
2022-12-27T03:55:33.444Z,101350.47
2022-12-27T03:58:00.889Z,101355.63
2022-12-27T04:00:28.057Z,101350.03
2022-12-27T04:02:57.819Z,101354.31
2022-12-27T04:05:29.302Z,101351.06
2022-12-27T04:08:14.602Z,101354.03
2022-12-27T04:11:00.164Z,101361.50
2022-12-27T04:13:45.856Z,101352.53
2022-12-27T04:16:31.043Z,101360.25
2022-12-27T04:19:16.810Z,101349.50
2022-12-27T04:22:01.999Z,101362.25
2022-12-27T04:24:47.300Z,101365.00
2022-12-27T04:27:32.730Z,101365.16
2022-12-27T04:30:18.010Z,101365.28
2022-12-27T04:33:06.519Z,101363.16
2022-12-27T04:35:36.034Z,101366.66
2022-12-27T04:38:05.484Z,101349.13
2022-12-27T04:40:50.754Z,101348.47
2022-12-27T04:43:36.122Z,101371.78
2022-12-27T04:46:21.789Z,101357.25
2022-12-27T04:49:07.017Z,101359.56
2022-12-27T04:51:52.451Z,101357.06
2022-12-27T04:54:43.814Z,101345.16
2022-12-27T04:57:10.810Z,101360.41
2022-12-27T04:59:58.555Z,101356.00
2022-12-27T05:02:30.393Z,101365.13
2022-12-27T05:05:00.479Z,101354.66
2022-12-27T05:07:48.293Z,101354.53
2022-12-27T05:10:38.469Z,101359.94
2022-12-27T05:13:30.825Z,101368.34
2022-12-27T05:15:58.148Z,101366.19
2022-12-27T05:18:25.106Z,101385.88
2022-12-27T05:20:54.725Z,101354.50
2022-12-27T05:23:42.391Z,101364.81
2022-12-27T05:26:09.613Z,101367.56
2022-12-27T05:28:36.460Z,101369.81
2022-12-27T05:31:03.425Z,101371.75
2022-12-27T05:33:33.385Z,101375.75
2022-12-27T05:36:00.882Z,101373.50
2022-12-27T05:38:29.999Z,101380.31
2022-12-27T05:41:04.152Z,101369.25
2022-12-27T05:43:35.098Z,101372.28
2022-12-27T05:46:14.258Z,101378.13
2022-12-27T05:48:42.007Z,101377.34
2022-12-27T05:51:12.635Z,101383.19
2022-12-27T05:53:40.361Z,101381.47
2022-12-27T05:56:11.342Z,101381.09
2022-12-27T05:58:38.314Z,101388.66
2022-12-27T06:01:10.563Z,101385.09
2022-12-27T06:03:38.038Z,101390.81
2022-12-27T06:06:08.469Z,101405.69
2022-12-27T06:08:36.734Z,101401.22
2022-12-27T06:11:10.449Z,101411.06
2022-12-27T06:13:41.948Z,101414.50
2022-12-27T06:16:12.275Z,101423.88
2022-12-27T06:18:41.480Z,101423.69
2022-12-27T06:21:17.619Z,101425.28
2022-12-27T06:23:45.895Z,101433.56
2022-12-27T06:26:28.073Z,101432.25
2022-12-27T06:28:57.303Z,101444.59
2022-12-27T06:31:27.892Z,101446.84
2022-12-27T06:33:57.782Z,101445.19
2022-12-27T06:36:32.634Z,101444.34
2022-12-27T06:39:00.886Z,101449.56
2022-12-27T06:41:27.886Z,101464.09
2022-12-27T06:44:00.939Z,101458.53
2022-12-27T06:46:30.083Z,101461.78
2022-12-27T06:48:57.582Z,101454.69
2022-12-27T06:51:26.569Z,101466.94
2022-12-27T06:53:53.531Z,101475.28
2022-12-27T06:56:25.077Z,101460.69
2022-12-27T06:58:52.193Z,101456.50
2022-12-27T07:01:27.394Z,101465.22
2022-12-27T07:03:59.526Z,101469.19
2022-12-27T07:06:36.024Z,101479.06
2022-12-27T07:09:06.066Z,101488.69
2022-12-27T07:11:39.442Z,101493.81
2022-12-27T07:14:10.263Z,101502.91
2022-12-27T07:16:37.599Z,101510.06
2022-12-27T07:19:07.128Z,101521.34
2022-12-27T07:21:37.152Z,101508.69
2022-12-27T07:24:09.322Z,101517.56
2022-12-27T07:26:36.275Z,101520.94
2022-12-27T07:29:05.719Z,101518.75
2022-12-27T07:31:35.783Z,101529.81
2022-12-27T07:34:06.386Z,101536.44
2022-12-27T07:36:37.549Z,101528.94
2022-12-27T07:39:05.841Z,101528.69
2022-12-27T07:41:35.876Z,101530.34
2022-12-27T07:44:03.921Z,101539.16
2022-12-27T07:46:31.196Z,101542.25
2022-12-27T07:48:58.743Z,101548.94
2022-12-27T07:51:27.028Z,101554.53
2022-12-27T07:53:54.508Z,101550.31
2022-12-27T07:56:27.325Z,101555.94
2022-12-27T07:58:57.335Z,101568.72
2022-12-27T08:01:28.066Z,101569.66
2022-12-27T08:03:55.563Z,101580.22
2022-12-27T08:06:23.903Z,101588.75
2022-12-27T08:08:55.584Z,101577.84
2022-12-27T08:11:26.714Z,101579.56
2022-12-27T08:13:53.935Z,101589.41
2022-12-27T08:16:24.911Z,101602.94
2022-12-27T08:18:56.334Z,101598.25
2022-12-27T08:21:26.304Z,101606.84
2022-12-27T08:24:02.212Z,101597.97
2022-12-27T08:26:32.124Z,101597.50
2022-12-27T08:29:01.194Z,101594.13
2022-12-27T08:31:30.314Z,101609.91
2022-12-27T08:33:59.623Z,101610.03
2022-12-27T08:39:13.606Z,101607.88
2022-12-27T08:41:40.673Z,101612.03
2022-12-27T08:44:12.575Z,101611.22
2022-12-27T08:46:39.714Z,101609.22
2022-12-27T08:49:06.734Z,101600.94
2022-12-27T08:51:41.068Z,101624.56
2022-12-27T08:54:11.550Z,101619.50
2022-12-27T08:56:38.495Z,101622.53
2022-12-27T08:59:05.466Z,101631.84
2022-12-27T09:01:32.862Z,101634.31
2022-12-27T09:03:59.836Z,101639.44
2022-12-27T09:06:28.889Z,101643.72
2022-12-27T09:08:59.683Z,101643.91
2022-12-27T09:11:30.656Z,101650.63
2022-12-27T09:14:01.394Z,101659.22
2022-12-27T09:16:29.865Z,101667.00
2022-12-27T09:18:59.254Z,101661.22
2022-12-27T09:21:29.207Z,101668.81
2022-12-27T09:23:59.119Z,101667.13
2022-12-27T09:26:29.525Z,101679.03
2022-12-27T09:29:00.080Z,101675.59
2022-12-27T09:31:28.304Z,101678.03
2022-12-27T09:33:55.822Z,101681.59
2022-12-27T09:36:30.809Z,101685.78
2022-12-27T09:38:59.055Z,101683.63
2022-12-27T09:45:17.870Z,101673.03
2022-12-27T09:48:09.424Z,101676.94
2022-12-27T09:50:55.874Z,101686.47
2022-12-27T09:53:48.701Z,101686.28
2022-12-27T09:56:35.693Z,101696.34
2022-12-27T09:59:24.115Z,101702.31
2022-12-27T10:01:51.653Z,101689.41
2022-12-27T10:04:21.712Z,101697.75
2022-12-27T10:07:03.797Z,101697.19
2022-12-27T10:10:29.433Z,101697.63
2022-12-27T10:13:23.705Z,101696.28
2022-12-27T10:16:18.013Z,101701.06
2022-12-27T10:19:13.359Z,101700.06
2022-12-27T10:22:17.488Z,101709.78
2022-12-27T10:24:57.337Z,101704.09
2022-12-27T10:27:31.939Z,101709.84
2022-12-27T10:30:00.316Z,101712.28
2022-12-27T10:32:30.273Z,101715.34
2022-12-27T10:35:01.326Z,101714.19
2022-12-27T10:37:28.741Z,101709.69
2022-12-27T10:40:32.487Z,101715.38
2022-12-27T10:43:18.444Z,101723.63
2022-12-27T10:45:45.593Z,101728.69
2022-12-27T10:48:25.120Z,101721.13
2022-12-27T10:50:59.355Z,101721.69
2022-12-27T10:53:40.609Z,101723.13
2022-12-27T10:56:17.500Z,101732.66
2022-12-27T10:58:58.862Z,101737.72
2022-12-27T11:01:32.469Z,101729.53
2022-12-27T11:04:24.087Z,101741.22
2022-12-27T11:07:00.117Z,101744.72
2022-12-27T11:09:41.512Z,101739.09
2022-12-27T11:12:18.620Z,101742.78
2022-12-27T11:15:25.080Z,101749.88
2022-12-27T11:18:02.260Z,101750.00
2022-12-27T11:20:49.740Z,101749.56
2022-12-27T11:23:22.647Z,101762.50
2022-12-27T11:25:58.220Z,101777.81
2022-12-27T11:28:50.923Z,101770.91
2022-12-27T11:31:35.868Z,101764.94
2022-12-27T11:34:16.012Z,101772.53
2022-12-27T11:36:48.306Z,101778.19
2022-12-27T11:39:43.034Z,101760.81
2022-12-27T11:42:38.482Z,101776.31
2022-12-27T11:45:49.603Z,101771.63
2022-12-27T11:48:45.265Z,101773.91
2022-12-27T11:51:40.236Z,101780.50
2022-12-27T11:54:57.129Z,101771.25
2022-12-27T11:57:42.598Z,101778.19
2022-12-27T12:00:23.651Z,101758.25
2022-12-27T12:03:27.898Z,101764.38
2022-12-27T12:06:15.869Z,101775.09
2022-12-27T12:09:10.391Z,101775.34
2022-12-27T12:12:01.102Z,101772.91
2022-12-27T12:14:44.248Z,101765.56
2022-12-27T12:17:41.769Z,101791.09
2022-12-27T12:20:50.336Z,101778.72
2022-12-27T12:23:26.742Z,101787.41
2022-12-27T12:26:16.104Z,101792.50
2022-12-27T12:29:06.517Z,101792.00
2022-12-27T12:31:55.904Z,101795.03
2022-12-27T12:34:56.575Z,101782.28
2022-12-27T12:38:00.638Z,101789.91
2022-12-27T12:41:11.032Z,101785.88
2022-12-27T12:43:43.667Z,101790.03
2022-12-27T12:46:46.069Z,101792.72
2022-12-27T12:49:32.722Z,101792.69
2022-12-27T12:52:24.595Z,101793.19
2022-12-27T12:55:19.953Z,101772.72
2022-12-27T12:58:08.022Z,101778.53
2022-12-27T13:00:49.637Z,101781.97
2022-12-27T13:04:01.960Z,101768.38
2022-12-27T13:07:11.862Z,101762.13
2022-12-27T13:10:17.001Z,101772.97
2022-12-27T13:13:20.327Z,101774.91
2022-12-27T13:16:21.741Z,101781.91
2022-12-27T13:19:14.694Z,101771.03
2022-12-27T13:22:19.391Z,101772.00
2022-12-27T13:25:21.055Z,101776.84
2022-12-27T13:28:13.993Z,101788.03
2022-12-27T13:31:09.674Z,101786.50
2022-12-27T13:34:16.295Z,101774.94
2022-12-27T13:37:24.853Z,101774.53
2022-12-27T13:40:25.883Z,101786.56
2022-12-27T13:43:40.834Z,101773.94
2022-12-27T13:46:33.168Z,101773.41
2022-12-27T13:49:40.571Z,101766.22
2022-12-27T13:52:59.731Z,101775.06
2022-12-27T13:55:45.146Z,101769.44
2022-12-27T13:58:20.825Z,101766.22
2022-12-27T14:01:24.851Z,101760.22
2022-12-27T14:04:28.728Z,101760.28
2022-12-27T14:07:21.795Z,101764.56
2022-12-27T14:10:15.292Z,101769.81
2022-12-27T14:12:48.062Z,101769.34
2022-12-27T14:15:22.738Z,101762.53
2022-12-27T14:18:08.379Z,101761.91
2022-12-27T14:20:51.479Z,101768.06
2022-12-27T14:23:56.005Z,101769.41
2022-12-27T14:26:48.437Z,101774.81
2022-12-27T14:29:45.131Z,101764.97
2022-12-27T14:32:33.613Z,101773.81
2022-12-27T14:35:47.086Z,101770.16
2022-12-27T14:38:39.756Z,101777.72
2022-12-27T14:41:29.350Z,101769.97
2022-12-27T14:44:29.568Z,101783.28
2022-12-27T14:47:45.750Z,101789.41
2022-12-27T14:50:40.051Z,101779.16
2022-12-27T14:53:37.024Z,101780.28
2022-12-27T14:56:24.988Z,101776.13
2022-12-27T14:59:09.642Z,101779.19
2022-12-27T15:02:20.631Z,101778.69
2022-12-27T15:05:23.575Z,101788.78
2022-12-27T15:08:12.110Z,101788.56
2022-12-27T15:10:54.001Z,101790.50
2022-12-27T15:13:54.806Z,101785.81
2022-12-27T15:16:52.634Z,101771.84
2022-12-27T15:19:59.556Z,101776.69
2022-12-27T15:22:38.227Z,101772.28
2022-12-27T15:25:38.372Z,101778.31
2022-12-27T15:28:52.542Z,101778.69
2022-12-27T15:31:19.297Z,101782.72
2022-12-27T15:34:36.302Z,101774.25
2022-12-27T15:37:03.542Z,101775.03
2022-12-27T15:39:47.911Z,101776.88
2022-12-27T15:42:44.825Z,101787.47
2022-12-27T15:45:48.600Z,101783.91
2022-12-27T15:48:51.589Z,101771.94
2022-12-27T15:51:45.810Z,101779.94
2022-12-27T15:54:30.625Z,101778.59
2022-12-27T15:57:03.172Z,101779.31
2022-12-27T15:59:48.144Z,101776.69
2022-12-27T16:02:34.123Z,101775.16
2022-12-27T16:05:01.108Z,101776.78
2022-12-27T16:07:52.558Z,101769.69
2022-12-27T16:10:31.962Z,101771.94
2022-12-27T16:13:06.893Z,101767.31
2022-12-27T16:15:55.439Z,101765.28
2022-12-27T16:18:22.280Z,101763.81
2022-12-27T16:21:27.595Z,101762.59
2022-12-27T16:24:03.627Z,101763.50
2022-12-27T16:26:35.783Z,101754.84
2022-12-27T16:29:13.537Z,101759.31
2022-12-27T16:31:49.530Z,101753.81
2022-12-27T16:34:31.750Z,101757.75
2022-12-27T16:37:00.774Z,101756.91
2022-12-27T16:39:51.811Z,101761.25
2022-12-27T16:42:28.576Z,101767.31
2022-12-27T16:45:23.127Z,101761.31
2022-12-27T16:48:11.024Z,101754.16
2022-12-27T16:51:23.442Z,101761.03
2022-12-27T16:54:16.716Z,101755.47
2022-12-27T16:56:48.035Z,101753.25
2022-12-27T17:00:07.417Z,101753.03
2022-12-27T17:02:54.490Z,101754.91
2022-12-27T17:05:36.366Z,101760.34
2022-12-27T17:08:30.585Z,101747.75
2022-12-27T17:11:28.285Z,101758.75
2022-12-27T17:14:03.147Z,101763.28
2022-12-27T17:16:44.265Z,101754.22
2022-12-27T17:19:45.925Z,101751.09
2022-12-27T17:22:15.944Z,101751.31
2022-12-27T17:24:56.059Z,101751.44
2022-12-27T17:27:38.801Z,101752.13
2022-12-27T17:30:24.644Z,101760.94
2022-12-27T17:33:26.274Z,101741.59
2022-12-27T17:36:26.390Z,101744.50
2022-12-27T17:39:08.710Z,101744.06
2022-12-27T17:42:31.252Z,101744.88
2022-12-27T17:45:38.281Z,101741.34
2022-12-27T17:48:29.331Z,101744.97
2022-12-27T17:51:05.384Z,101741.69
2022-12-27T17:53:53.145Z,101745.34
2022-12-27T17:57:02.574Z,101736.09
2022-12-27T17:59:34.851Z,101737.41
2022-12-27T18:02:12.408Z,101741.41
2022-12-27T18:04:48.129Z,101739.28
2022-12-27T18:07:22.905Z,101730.41
2022-12-27T18:09:53.723Z,101718.69
2022-12-27T18:12:54.020Z,101717.19
2022-12-27T18:15:26.910Z,101721.78
2022-12-27T18:18:09.788Z,101724.41
2022-12-27T18:20:42.160Z,101717.94
2022-12-27T18:23:17.667Z,101723.25
2022-12-27T18:25:44.490Z,101720.63
2022-12-27T18:28:49.125Z,101725.81
2022-12-27T18:31:35.902Z,101716.72
2022-12-27T18:34:19.144Z,101715.94
2022-12-27T18:36:58.758Z,101703.00
2022-12-27T18:39:29.904Z,101703.22
2022-12-27T18:41:58.381Z,101700.56
2022-12-27T18:44:54.120Z,101699.31
2022-12-27T18:47:27.155Z,101700.50
2022-12-27T18:50:03.337Z,101697.78
2022-12-27T18:52:34.816Z,101688.28
2022-12-27T18:55:28.967Z,101687.53
2022-12-27T18:58:20.802Z,101677.28
2022-12-27T19:00:59.087Z,101677.56
2022-12-27T19:03:27.254Z,101672.31
2022-12-27T19:06:04.743Z,101669.91
2022-12-27T19:08:52.765Z,101664.53
2022-12-27T19:11:29.428Z,101659.19
2022-12-27T19:14:01.177Z,101666.97
2022-12-27T19:16:34.371Z,101664.31
2022-12-27T19:19:20.428Z,101670.44
2022-12-27T19:21:49.581Z,101674.25
2022-12-27T19:24:28.813Z,101660.00
2022-12-27T19:27:00.735Z,101664.75
2022-12-27T19:29:36.534Z,101660.97
2022-12-27T19:32:11.907Z,101653.88
2022-12-27T19:34:50.614Z,101651.38
2022-12-27T19:37:18.177Z,101642.78
2022-12-27T19:39:47.843Z,101642.78
2022-12-27T19:42:30.808Z,101639.50
2022-12-27T19:44:57.998Z,101635.09
2022-12-27T19:47:29.002Z,101627.78
2022-12-27T19:49:56.026Z,101629.38
2022-12-27T19:52:27.106Z,101627.41
2022-12-27T19:55:08.063Z,101624.22
2022-12-27T19:57:35.121Z,101624.19
2022-12-27T20:00:05.366Z,101626.16
2022-12-27T20:02:38.676Z,101624.69
2022-12-27T20:05:06.765Z,101613.50
2022-12-27T20:07:39.394Z,101612.47
2022-12-27T20:10:07.334Z,101607.78
2022-12-27T20:12:38.747Z,101612.47
2022-12-27T20:15:06.629Z,101609.69
2022-12-27T20:17:41.051Z,101614.50
2022-12-27T20:20:14.847Z,101611.97
2022-12-27T20:22:42.596Z,101613.38
2022-12-27T20:25:11.543Z,101608.31
2022-12-27T20:27:42.937Z,101600.97
2022-12-27T20:30:11.298Z,101604.44
2022-12-27T20:32:39.966Z,101600.78
2022-12-27T20:35:11.173Z,101598.00
2022-12-27T20:37:39.458Z,101587.59
2022-12-27T20:40:13.847Z,101592.09
2022-12-27T20:42:41.384Z,101587.03
2022-12-27T20:45:11.795Z,101583.16
2022-12-27T20:47:40.733Z,101575.09
2022-12-27T20:50:10.740Z,101567.59
2022-12-27T20:52:39.156Z,101566.28
2022-12-27T20:55:12.263Z,101567.03
2022-12-27T20:57:39.739Z,101558.34
2022-12-27T21:00:13.629Z,101560.97
2022-12-27T21:02:43.062Z,101548.50
2022-12-27T21:05:12.764Z,101545.56
2022-12-27T21:07:39.692Z,101541.69
2022-12-27T21:10:08.760Z,101549.41
2022-12-27T21:12:42.401Z,101549.59
2022-12-27T21:15:11.656Z,101542.91
2022-12-27T21:17:39.209Z,101549.25
2022-12-27T21:20:11.161Z,101554.56
2022-12-27T21:22:40.339Z,101555.41
2022-12-27T21:25:08.797Z,101547.22
2022-12-27T21:27:36.789Z,101545.19
2022-12-27T21:30:08.491Z,101534.34
2022-12-27T21:32:37.004Z,101547.28
2022-12-27T21:35:05.360Z,101531.72
2022-12-27T21:37:32.804Z,101534.66
2022-12-27T21:40:02.051Z,101530.34
2022-12-27T21:42:28.938Z,101521.81
2022-12-27T21:44:55.902Z,101534.47
2022-12-27T21:47:23.412Z,101533.19
2022-12-27T21:49:52.825Z,101537.47
2022-12-27T21:52:19.717Z,101522.00
2022-12-27T21:54:46.535Z,101524.72
2022-12-27T21:57:13.451Z,101525.22
2022-12-27T21:59:40.286Z,101515.03
2022-12-27T22:02:08.739Z,101510.91
2022-12-27T22:04:35.726Z,101506.50
2022-12-27T22:07:02.653Z,101498.06
2022-12-27T22:09:29.616Z,101492.06
2022-12-27T22:11:56.819Z,101495.13
2022-12-27T22:14:28.401Z,101490.72
2022-12-27T22:17:00.635Z,101484.97
2022-12-27T22:19:27.985Z,101486.56
2022-12-27T22:21:54.976Z,101468.06
2022-12-27T22:24:21.840Z,101469.91
2022-12-27T22:26:50.132Z,101464.41
2022-12-27T22:29:17.900Z,101468.94
2022-12-27T22:31:45.073Z,101451.41
2022-12-27T22:34:14.561Z,101457.06
2022-12-27T22:36:41.431Z,101449.47
2022-12-27T22:39:08.373Z,101448.38
2022-12-27T22:41:39.100Z,101456.69
2022-12-27T22:44:11.184Z,101433.06
2022-12-27T22:47:06.869Z,101432.56
2022-12-27T22:49:26.193Z,101430.38
2022-12-27T22:51:53.650Z,101427.66
2022-12-27T22:54:20.649Z,101427.94
2022-12-27T22:57:10.860Z,101412.50
2022-12-27T22:59:37.902Z,101420.84
2022-12-27T23:02:05.209Z,101422.28
2022-12-27T23:04:34.485Z,101412.88
2022-12-27T23:07:02.185Z,101417.63
2022-12-27T23:09:29.391Z,101413.09
2022-12-27T23:11:56.606Z,101417.78
2022-12-27T23:14:26.110Z,101418.03
2022-12-27T23:16:53.104Z,101413.44
2022-12-27T23:19:24.351Z,101397.84
2022-12-27T23:21:53.593Z,101399.78
2022-12-27T23:24:22.977Z,101392.44
2022-12-27T23:26:49.877Z,101387.75
2022-12-27T23:29:17.002Z,101384.94
2022-12-27T23:31:54.944Z,101381.13
2022-12-27T23:34:28.728Z,101383.03
2022-12-27T23:36:58.052Z,101375.84
2022-12-27T23:39:27.580Z,101363.19
2022-12-27T23:41:55.240Z,101358.38
2022-12-27T23:44:34.399Z,101359.00
2022-12-27T23:47:07.247Z,101355.50
2022-12-27T23:49:34.541Z,101350.31
2022-12-27T23:52:04.196Z,101346.03
2022-12-27T23:54:31.183Z,101328.97
2022-12-27T23:57:22.274Z,101326.63
2022-12-27T23:59:47.502Z,101321.25
